Time;durP1;ratioP1;P1;durP2;ratioP2;P2;SDS_P1;SDS_P2;PMS_P1;PMS_P2;Temp;Humidity;BMP_temperature;BMP_pressure;BME280_temperature;BME280_humidity;BME280_pressure;Samples;Min_cycle;Max_cycle;Signal;HPM_P1;HPM_P2
2023/10/11 00:00:57;;;;;;;;;;;16.30;99.90;;;;;;4862739;29;20321;-85
2023/10/11 00:05:59;;;;;;;;;;;16.30;99.90;;;;;;4864005;29;19984;-87
2023/10/11 00:08:26;;;;;;;;;;;16.20;99.90;;;;;;4863732;29;19928;-83
2023/10/11 00:10:53;;;;;;;;;;;16.20;99.90;;;;;;4864072;29;19955;-83
2023/10/11 00:13:19;;;;;;;;;;;16.20;99.90;;;;;;4862666;29;19958;-86
2023/10/11 00:15:49;;;;;;;;;;;16.10;99.90;;;;;;4862672;29;19955;-88
2023/10/11 00:18:16;;;;;;;;;;;16.10;99.90;;;;;;4862387;29;19929;-84
2023/10/11 00:23:08;;;;;;;;;;;16.10;99.90;;;;;;4863365;29;19932;-85
2023/10/11 00:25:34;;;;;;;;;;;16.10;99.90;;;;;;4863339;29;19984;-86
2023/10/11 00:27:59;;;;;;;;;;;16.10;99.90;;;;;;4863396;29;19986;-83
2023/10/11 00:30:26;;;;;;;;;;;16.10;99.90;;;;;;4862234;29;19928;-85
2023/10/11 00:32:52;;;;;;;;;;;16.10;99.90;;;;;;4863135;29;20440;-86
2023/10/11 00:35:18;;;;;;;;;;;16.10;99.90;;;;;;4862642;29;19932;-87
2023/10/11 00:37:54;;;;;;;;;;;16.10;99.90;;;;;;4862477;29;19928;-88
2023/10/11 00:40:27;;;;;;;;;;;16.10;99.90;;;;;;4862237;29;19979;-87
2023/10/11 00:42:54;;;;;;;;;;;16.10;99.90;;;;;;4863622;29;19965;-85
2023/10/11 00:45:22;;;;;;;;;;;16.00;99.90;;;;;;4863499;29;20340;-86
2023/10/11 00:47:51;;;;;;;;;;;16.10;99.90;;;;;;4863190;29;19935;-85
2023/10/11 00:50:17;;;;;;;;;;;16.10;99.90;;;;;;4862947;29;19929;-85
2023/10/11 00:52:42;;;;;;;;;;;16.10;99.90;;;;;;4862945;29;19936;-84
2023/10/11 00:55:18;;;;;;;;;;;16.10;99.90;;;;;;4861885;29;19928;-86
2023/10/11 00:57:46;;;;;;;;;;;16.10;99.90;;;;;;4863602;29;19928;-86
2023/10/11 01:00:13;;;;;;;;;;;16.10;99.90;;;;;;4861890;29;19954;-85
2023/10/11 01:02:39;;;;;;;;;;;16.10;99.90;;;;;;4862212;29;20382;-85
2023/10/11 01:05:06;;;;;;;;;;;16.10;99.90;;;;;;4863025;29;20015;-86
2023/10/11 01:07:32;;;;;;;;;;;16.10;99.90;;;;;;4862587;29;20290;-87
2023/10/11 01:09:57;;;;;;;;;;;16.10;99.90;;;;;;4861144;29;19934;-84
2023/10/11 01:12:23;;;;;;;;;;;16.00;99.90;;;;;;4861554;29;19935;-85
2023/10/11 01:14:58;;;;;;;;;;;16.10;99.90;;;;;;4862415;29;19946;-88
2023/10/11 01:17:25;;;;;;;;;;;16.10;99.90;;;;;;4862948;29;20379;-86
2023/10/11 01:19:51;;;;;;;;;;;16.00;99.90;;;;;;4861597;29;19950;-87
2023/10/11 01:22:18;;;;;;;;;;;16.10;99.90;;;;;;4862272;29;20039;-87
2023/10/11 01:24:44;;;;;;;;;;;16.10;99.90;;;;;;4862328;29;19977;-86
2023/10/11 01:27:13;;;;;;;;;;;16.00;99.90;;;;;;4862007;29;19928;-84
2023/10/11 01:29:40;;;;;;;;;;;16.00;99.90;;;;;;4862319;29;19967;-83
2023/10/11 01:32:06;;;;;;;;;;;16.00;99.90;;;;;;4861295;29;19963;-86
2023/10/11 01:34:32;;;;;;;;;;;16.00;99.90;;;;;;4861246;29;19932;-87
2023/10/11 01:36:58;;;;;;;;;;;16.00;99.90;;;;;;4862017;29;20240;-86
2023/10/11 01:39:23;;;;;;;;;;;16.00;99.90;;;;;;4862580;29;19943;-84
2023/10/11 01:41:49;;;;;;;;;;;15.90;99.90;;;;;;4861978;29;19935;-86
2023/10/11 01:44:15;;;;;;;;;;;15.90;99.90;;;;;;4862185;29;19928;-84
2023/10/11 01:46:41;;;;;;;;;;;15.90;99.90;;;;;;4861931;29;20331;-85
2023/10/11 01:49:07;;;;;;;;;;;15.90;99.90;;;;;;4861095;29;19928;-86
2023/10/11 01:51:38;;;;;;;;;;;15.90;99.90;;;;;;4861389;29;20010;-86
2023/10/11 01:54:04;;;;;;;;;;;15.90;99.90;;;;;;4862866;29;19954;-87
2023/10/11 01:56:30;;;;;;;;;;;15.90;99.90;;;;;;4861941;29;19932;-87
2023/10/11 01:59:01;;;;;;;;;;;15.90;99.90;;;;;;4860798;29;19928;-86
2023/10/11 02:01:29;;;;;;;;;;;15.80;99.90;;;;;;4861686;29;19983;-84
2023/10/11 02:03:56;;;;;;;;;;;15.80;99.90;;;;;;4861846;29;19928;-86
2023/10/11 02:06:22;;;;;;;;;;;15.80;99.90;;;;;;4860836;29;19939;-85
2023/10/11 02:08:48;;;;;;;;;;;15.80;99.90;;;;;;4861590;29;19928;-85
2023/10/11 02:11:16;;;;;;;;;;;15.70;99.90;;;;;;4860728;29;19975;-86
2023/10/11 02:13:42;;;;;;;;;;;15.70;99.90;;;;;;4860602;29;19929;-86
2023/10/11 02:16:11;;;;;;;;;;;15.70;99.90;;;;;;4861695;29;19928;-84
2023/10/11 02:18:38;;;;;;;;;;;15.70;99.90;;;;;;4861630;29;19928;-85
2023/10/11 02:21:06;;;;;;;;;;;15.70;99.90;;;;;;4859983;29;19996;-89
2023/10/11 02:23:37;;;;;;;;;;;15.70;99.90;;;;;;4862090;29;19928;-87
2023/10/11 02:26:04;;;;;;;;;;;15.60;99.90;;;;;;4861334;29;19996;-85
2023/10/11 02:28:30;;;;;;;;;;;15.60;99.90;;;;;;4860230;29;19981;-84
2023/10/11 02:30:56;;;;;;;;;;;15.60;99.90;;;;;;4861414;29;19947;-88
2023/10/11 02:33:22;;;;;;;;;;;15.60;99.90;;;;;;4861546;29;20031;-86
2023/10/11 02:35:57;;;;;;;;;;;15.60;99.90;;;;;;4861157;29;19978;-84
2023/10/11 02:38:25;;;;;;;;;;;15.60;99.90;;;;;;4862673;29;19936;-84
2023/10/11 02:40:57;;;;;;;;;;;15.50;99.90;;;;;;4860966;29;20383;-85
2023/10/11 02:43:23;;;;;;;;;;;15.50;99.90;;;;;;4861997;29;19928;-87
2023/10/11 02:45:50;;;;;;;;;;;15.50;99.90;;;;;;4861670;29;19961;-84
2023/10/11 02:48:19;;;;;;;;;;;15.40;99.90;;;;;;4861048;29;20370;-86
2023/10/11 02:50:49;;;;;;;;;;;15.40;99.90;;;;;;4861184;29;19977;-86
2023/10/11 02:53:21;;;;;;;;;;;15.40;99.90;;;;;;4860331;29;19976;-85
2023/10/11 02:55:59;;;;;;;;;;;15.40;99.90;;;;;;4861239;29;20002;-88
2023/10/11 02:58:25;;;;;;;;;;;15.40;99.90;;;;;;4861111;29;19935;-85
2023/10/11 03:00:56;;;;;;;;;;;15.40;99.90;;;;;;4860289;29;19928;-87
2023/10/11 03:03:26;;;;;;;;;;;15.40;99.90;;;;;;4860174;29;20397;-86
2023/10/11 03:05:58;;;;;;;;;;;15.40;99.90;;;;;;4860019;29;20043;-88
2023/10/11 03:08:26;;;;;;;;;;;15.40;99.90;;;;;;4861077;29;19929;-87
2023/10/11 03:10:57;;;;;;;;;;;15.40;99.90;;;;;;4861072;29;19939;-85
2023/10/11 03:13:24;;;;;;;;;;;15.40;99.90;;;;;;4864864;29;20056;-88
2023/10/11 03:15:54;;;;;;;;;;;15.40;99.90;;;;;;4863622;29;19979;-86
2023/10/11 03:18:25;;;;;;;;;;;15.40;99.90;;;;;;4862553;29;19932;-86
2023/10/11 03:20:58;;;;;;;;;;;15.30;99.90;;;;;;4863147;29;19935;-86
2023/10/11 03:23:27;;;;;;;;;;;15.30;99.90;;;;;;4863018;29;20284;-85
2023/10/11 03:25:53;;;;;;;;;;;15.30;99.90;;;;;;4861426;29;19928;-87
2023/10/11 03:28:26;;;;;;;;;;;15.30;99.90;;;;;;4861622;29;20269;-85
2023/10/11 03:30:52;;;;;;;;;;;15.30;99.90;;;;;;4860922;29;19932;-85
2023/10/11 03:33:18;;;;;;;;;;;15.20;99.90;;;;;;4862457;29;20276;-84
2023/10/11 03:35:44;;;;;;;;;;;15.30;99.90;;;;;;4863390;29;19986;-85
2023/10/11 03:38:22;;;;;;;;;;;15.20;99.90;;;;;;4864260;29;19960;-87
2023/10/11 03:41:10;;;;;;;;;;;15.20;99.90;;;;;;4864628;29;20409;-88
2023/10/11 03:43:40;;;;;;;;;;;15.20;99.90;;;;;;4863219;29;19932;-86
2023/10/11 03:46:07;;;;;;;;;;;15.10;99.90;;;;;;4864343;29;19983;-86
2023/10/11 03:48:43;;;;;;;;;;;15.10;99.90;;;;;;4863767;29;20386;-85
2023/10/11 03:51:10;;;;;;;;;;;15.10;99.90;;;;;;4864654;29;19971;-85
2023/10/11 03:53:39;;;;;;;;;;;15.10;99.90;;;;;;4864082;29;19932;-85
2023/10/11 03:56:05;;;;;;;;;;;15.10;99.90;;;;;;4864023;29;19951;-85
2023/10/11 04:01:05;;;;;;;;;;;15.20;99.90;;;;;;4863101;29;19928;-84
2023/10/11 04:03:32;;;;;;;;;;;15.20;99.90;;;;;;4863836;29;19932;-84
2023/10/11 04:05:59;;;;;;;;;;;15.20;99.90;;;;;;4864441;29;20379;-84
2023/10/11 04:08:25;;;;;;;;;;;15.30;99.90;;;;;;4863853;29;19935;-86
2023/10/11 04:10:51;;;;;;;;;;;15.30;99.90;;;;;;4847334;29;20456;-85
2023/10/11 04:13:24;;;;;;;;;;;15.30;99.90;;;;;;4863841;29;19928;-83
2023/10/11 04:15:51;;;;;;;;;;;15.40;99.90;;;;;;4863885;29;19976;-84
2023/10/11 04:18:20;;;;;;;;;;;15.40;99.90;;;;;;4863730;29;19935;-84
2023/10/11 04:21:03;;;;;;;;;;;15.40;99.90;;;;;;4863111;29;19935;-83
2023/10/11 04:23:28;;;;;;;;;;;15.40;99.90;;;;;;4862709;29;20336;-85
2023/10/11 04:25:55;;;;;;;;;;;15.40;99.90;;;;;;4862928;29;19935;-86
2023/10/11 04:28:23;;;;;;;;;;;15.40;99.90;;;;;;4863085;29;20251;-85
2023/10/11 04:30:53;;;;;;;;;;;15.40;99.90;;;;;;4862015;29;20045;-86
2023/10/11 04:33:21;;;;;;;;;;;15.40;99.90;;;;;;4863605;29;19928;-83
2023/10/11 04:35:56;;;;;;;;;;;15.50;99.90;;;;;;4862057;29;19928;-83
2023/10/11 04:38:21;;;;;;;;;;;15.40;99.90;;;;;;4862435;29;19932;-84
2023/10/11 04:40:51;;;;;;;;;;;15.50;99.90;;;;;;4863112;29;19935;-85
2023/10/11 04:43:29;;;;;;;;;;;15.50;99.90;;;;;;4863037;29;19928;-85
2023/10/11 04:45:59;;;;;;;;;;;15.40;99.90;;;;;;4861663;29;19934;-84
2023/10/11 04:48:36;;;;;;;;;;;15.50;99.90;;;;;;4863241;29;19928;-85
2023/10/11 04:59:11;;;;;;;;;;;15.50;99.90;;;;;;4862526;29;19957;-86
2023/10/11 05:02:24;;;;;;;;;;;15.60;99.90;;;;;;4862763;29;19928;-82
2023/10/11 05:04:32;;;;;;;;;;;15.60;99.90;;;;;;4857058;29;20018;-85
2023/10/11 05:07:03;;;;;;;;;;;15.60;99.90;;;;;;4863454;29;19951;-83
2023/10/11 05:09:38;;;;;;;;;;;15.70;99.90;;;;;;4862619;29;20307;-85
2023/10/11 05:12:13;;;;;;;;;;;15.70;99.90;;;;;;4862998;29;19928;-85
2023/10/11 05:14:40;;;;;;;;;;;15.60;99.90;;;;;;4862551;29;19935;-91
2023/10/11 05:17:58;;;;;;;;;;;15.70;99.90;;;;;;4862744;29;19935;-87
2023/10/11 05:22:35;;;;;;;;;;;15.60;99.90;;;;;;4861814;29;19932;-85
2023/10/11 05:32:54;;;;;;;;;;;15.60;99.90;;;;;;4861469;29;20280;-87
2023/10/11 05:51:42;;;;;;;;;;;15.40;99.90;;;;;;4862188;29;19939;-85
2023/10/11 05:54:08;;;;;;;;;;;15.40;99.90;;;;;;4861078;29;19928;-87
2023/10/11 05:56:34;;;;;;;;;;;15.40;99.90;;;;;;4861825;29;19936;-86
2023/10/11 05:59:03;;;;;;;;;;;15.40;99.90;;;;;;4862048;29;19928;-86
2023/10/11 06:01:29;;;;;;;;;;;15.40;99.90;;;;;;4862576;29;19935;-85
2023/10/11 06:03:56;;;;;;;;;;;15.40;99.90;;;;;;4861872;29;19935;-85
2023/10/11 06:06:32;;;;;;;;;;;15.30;99.90;;;;;;4862318;29;19932;-87
2023/10/11 06:08:58;;;;;;;;;;;15.40;99.90;;;;;;4861791;29;19928;-84
2023/10/11 06:11:29;;;;;;;;;;;15.40;99.90;;;;;;4861180;29;19932;-87
2023/10/11 06:13:58;;;;;;;;;;;15.40;99.90;;;;;;4861828;29;19967;-85
2023/10/11 06:16:24;;;;;;;;;;;15.40;99.90;;;;;;4861208;29;19928;-86
2023/10/11 06:18:55;;;;;;;;;;;15.50;99.90;;;;;;4861571;29;19928;-84
2023/10/11 06:21:31;;;;;;;;;;;15.50;99.90;;;;;;4876314;29;19947;-87
2023/10/11 06:24:00;;;;;;;;;;;15.50;99.90;;;;;;4862294;29;20007;-86
2023/10/11 06:26:28;;;;;;;;;;;15.60;99.90;;;;;;4860213;29;20357;-87
2023/10/11 06:29:03;;;;;;;;;;;15.60;99.90;;;;;;4861419;29;19983;-85
2023/10/11 06:31:43;;;;;;;;;;;15.60;99.90;;;;;;4860716;29;19935;-85
2023/10/11 06:34:15;;;;;;;;;;;15.70;99.90;;;;;;4861476;29;19928;-86
2023/10/11 06:36:50;;;;;;;;;;;15.70;99.90;;;;;;4861881;29;19928;-86
2023/10/11 06:39:33;;;;;;;;;;;15.70;99.90;;;;;;4862114;29;20057;-89
2023/10/11 06:42:23;;;;;;;;;;;15.80;99.90;;;;;;4861379;29;20288;-87
2023/10/11 06:44:48;;;;;;;;;;;15.70;99.90;;;;;;4861034;29;19928;-85
2023/10/11 06:47:15;;;;;;;;;;;15.80;99.90;;;;;;4860978;29;20384;-84
2023/10/11 06:49:44;;;;;;;;;;;15.80;99.90;;;;;;4861442;29;19932;-90
2023/10/11 06:52:11;;;;;;;;;;;15.80;99.90;;;;;;4860448;29;19928;-86
2023/10/11 06:54:46;;;;;;;;;;;15.80;99.90;;;;;;4861665;29;19928;-86
2023/10/11 06:57:20;;;;;;;;;;;15.90;99.90;;;;;;4861439;29;20377;-86
2023/10/11 06:59:49;;;;;;;;;;;15.90;99.90;;;;;;4862032;29;19991;-85
2023/10/11 07:02:18;;;;;;;;;;;15.90;99.90;;;;;;4861208;29;19928;-86
2023/10/11 07:04:50;;;;;;;;;;;15.90;99.90;;;;;;4860877;29;19979;-85
2023/10/11 07:07:19;;;;;;;;;;;16.00;99.90;;;;;;4859899;29;20376;-88
2023/10/11 07:09:56;;;;;;;;;;;16.00;99.90;;;;;;4865006;29;19935;-85
2023/10/11 07:12:28;;;;;;;;;;;16.00;99.90;;;;;;4863941;29;19932;-89
2023/10/11 07:14:59;;;;;;;;;;;16.00;99.90;;;;;;4864523;29;19936;-86
2023/10/11 07:17:32;;;;;;;;;;;16.00;99.90;;;;;;4864538;29;19929;-86
2023/10/11 07:19:57;;;;;;;;;;;16.00;99.90;;;;;;4864845;29;19928;-86
2023/10/11 07:22:26;;;;;;;;;;;16.00;99.90;;;;;;4863093;29;19928;-86
2023/10/11 07:24:59;;;;;;;;;;;16.10;99.90;;;;;;4863423;29;20332;-85
2023/10/11 07:27:37;;;;;;;;;;;16.10;99.90;;;;;;4864734;29;19984;-87
2023/10/11 07:30:15;;;;;;;;;;;16.10;99.90;;;;;;4864287;29;19928;-86
2023/10/11 07:32:42;;;;;;;;;;;16.10;99.90;;;;;;4862973;29;19932;-86
2023/10/11 07:35:17;;;;;;;;;;;16.10;99.90;;;;;;4864180;29;19935;-86
2023/10/11 07:37:43;;;;;;;;;;;16.20;99.90;;;;;;4864207;29;19943;-87
2023/10/11 07:40:12;;;;;;;;;;;16.20;99.90;;;;;;4865050;29;19928;-86
2023/10/11 07:42:38;;;;;;;;;;;16.20;99.90;;;;;;4865136;29;19929;-85
2023/10/11 07:45:12;;;;;;;;;;;16.30;99.90;;;;;;4863520;29;19935;-83
2023/10/11 07:47:45;;;;;;;;;;;16.30;99.90;;;;;;4863315;29;19935;-86
2023/10/11 07:50:13;;;;;;;;;;;16.30;99.90;;;;;;4863932;29;19928;-87
2023/10/11 07:52:40;;;;;;;;;;;16.30;99.90;;;;;;4862981;29;19983;-87
2023/10/11 07:55:08;;;;;;;;;;;16.30;99.90;;;;;;4863075;29;19928;-85
2023/10/11 07:57:39;;;;;;;;;;;16.40;99.90;;;;;;4863912;29;20372;-87
2023/10/11 08:00:16;;;;;;;;;;;16.40;99.90;;;;;;4862789;29;19935;-87
2023/10/11 08:02:43;;;;;;;;;;;16.40;99.90;;;;;;4862325;29;19928;-86
2023/10/11 08:05:12;;;;;;;;;;;16.40;99.90;;;;;;4862783;29;20376;-86
2023/10/11 08:07:40;;;;;;;;;;;16.40;99.90;;;;;;4847301;29;19984;-88
2023/10/11 08:10:44;;;;;;;;;;;16.50;99.90;;;;;;4863558;29;19928;-87
2023/10/11 08:12:58;;;;;;;;;;;16.40;99.90;;;;;;4859607;29;19928;-87
2023/10/11 08:15:25;;;;;;;;;;;16.50;99.90;;;;;;4862535;29;19936;-88
2023/10/11 08:17:51;;;;;;;;;;;16.50;99.90;;;;;;4862667;29;20011;-85
2023/10/11 08:20:16;;;;;;;;;;;16.50;99.90;;;;;;4863076;29;19928;-86
2023/10/11 08:22:46;;;;;;;;;;;16.50;99.90;;;;;;4863579;29;19936;-86
2023/10/11 08:25:12;;;;;;;;;;;16.60;99.90;;;;;;4863484;29;19932;-86
2023/10/11 08:27:39;;;;;;;;;;;16.60;99.90;;;;;;4863845;29;19928;-88
2023/10/11 08:30:08;;;;;;;;;;;16.60;99.90;;;;;;4862683;29;19934;-86
2023/10/11 08:32:38;;;;;;;;;;;16.60;99.90;;;;;;4863430;29;19928;-86
2023/10/11 08:35:05;;;;;;;;;;;16.60;99.90;;;;;;4862620;29;20386;-85
2023/10/11 08:37:31;;;;;;;;;;;16.70;99.90;;;;;;4862347;29;19999;-85
2023/10/11 08:39:57;;;;;;;;;;;16.70;99.90;;;;;;4863856;29;20294;-84
2023/10/11 08:42:30;;;;;;;;;;;16.70;99.90;;;;;;4846984;29;20011;-87
2023/10/11 08:44:59;;;;;;;;;;;16.80;99.90;;;;;;4862624;29;19936;-83
2023/10/11 08:47:24;;;;;;;;;;;16.80;99.90;;;;;;4863339;29;20363;-84
2023/10/11 08:49:51;;;;;;;;;;;16.80;99.90;;;;;;4863875;29;19975;-85
2023/10/11 08:52:24;;;;;;;;;;;16.80;99.90;;;;;;4861809;29;19936;-85
2023/10/11 08:54:50;;;;;;;;;;;16.90;99.90;;;;;;4863118;29;19980;-84
2023/10/11 08:57:25;;;;;;;;;;;16.90;99.90;;;;;;4862803;29;19981;-87
2023/10/11 08:59:57;;;;;;;;;;;16.80;99.90;;;;;;4863298;29;19928;-84
2023/10/11 09:02:33;;;;;;;;;;;16.90;99.90;;;;;;4861544;29;19975;-86
2023/10/11 09:05:06;;;;;;;;;;;16.90;99.90;;;;;;4862694;29;19984;-86
2023/10/11 09:07:45;;;;;;;;;;;16.90;99.90;;;;;;4862896;29;20459;-85
2023/10/11 09:10:23;;;;;;;;;;;16.90;99.90;;;;;;4862791;29;19928;-83
2023/10/11 09:12:49;;;;;;;;;;;16.90;99.90;;;;;;4863376;29;19951;-85
2023/10/11 09:15:14;;;;;;;;;;;16.90;99.90;;;;;;4862618;29;19928;-84
2023/10/11 09:17:40;;;;;;;;;;;16.90;99.90;;;;;;4846238;29;20399;-85
2023/10/11 09:20:40;;;;;;;;;;;16.90;99.90;;;;;;4846147;29;20393;-87
2023/10/11 09:22:56;;;;;;;;;;;16.90;99.90;;;;;;4862284;29;19928;-85
2023/10/11 09:25:22;;;;;;;;;;;16.90;99.90;;;;;;4866479;29;19979;-85
2023/10/11 09:27:51;;;;;;;;;;;17.00;99.90;;;;;;4865053;29;19928;-87
2023/10/11 09:30:21;;;;;;;;;;;17.00;99.90;;;;;;4863917;29;20341;-89
2023/10/11 09:32:49;;;;;;;;;;;16.90;99.90;;;;;;4864074;29;20019;-83
2023/10/11 09:35:26;;;;;;;;;;;17.00;99.90;;;;;;4863128;29;19928;-87
2023/10/11 09:37:55;;;;;;;;;;;17.00;99.90;;;;;;4861760;29;19932;-86
2023/10/11 09:40:27;;;;;;;;;;;17.00;99.90;;;;;;4861046;29;19935;-84
2023/10/11 09:42:56;;;;;;;;;;;17.00;99.90;;;;;;4862446;29;19928;-85
2023/10/11 09:45:22;;;;;;;;;;;17.00;99.90;;;;;;4862874;29;19939;-85
2023/10/11 09:47:54;;;;;;;;;;;17.00;99.90;;;;;;4861813;29;20382;-86
2023/10/11 09:50:23;;;;;;;;;;;17.10;99.90;;;;;;4862087;29;19935;-86
2023/10/11 09:52:52;;;;;;;;;;;17.10;99.90;;;;;;4861157;29;20005;-86
2023/10/11 09:55:22;;;;;;;;;;;17.10;99.90;;;;;;4860794;29;19928;-85
2023/10/11 09:57:55;;;;;;;;;;;17.10;99.90;;;;;;4860876;29;19928;-85
2023/10/11 10:00:42;;;;;;;;;;;17.10;99.90;;;;;;4862214;29;19928;-85
2023/10/11 10:03:13;;;;;;;;;;;17.10;99.90;;;;;;4825476;29;19954;-85
2023/10/11 10:06:00;;;;;;;;;;;17.10;99.90;;;;;;4825771;29;19936;-85
2023/10/11 10:08:28;;;;;;;;;;;17.10;99.90;;;;;;4824298;29;20280;-87
2023/10/11 10:10:54;;;;;;;;;;;17.10;99.90;;;;;;4825180;29;20409;-84
2023/10/11 10:13:24;;;;;;;;;;;17.10;99.90;;;;;;4824096;29;20016;-85
2023/10/11 10:15:52;;;;;;;;;;;17.10;99.90;;;;;;4824510;29;19929;-87
2023/10/11 10:18:19;;;;;;;;;;;17.20;99.90;;;;;;4824235;29;20387;-84
2023/10/11 10:20:46;;;;;;;;;;;17.40;99.90;;;;;;4825178;29;19936;-88
2023/10/11 10:23:14;;;;;;;;;;;17.50;99.90;;;;;;4825031;29;20012;-85
2023/10/11 10:25:46;;;;;;;;;;;17.70;99.90;;;;;;4825030;29;19928;-84
2023/10/11 10:28:43;;;;;;;;;;;17.70;99.90;;;;;;4825040;29;20019;-83
2023/10/11 10:31:20;;;;;;;;;;;17.80;99.90;;;;;;4810847;29;19928;-85
2023/10/11 10:33:49;;;;;;;;;;;17.80;99.90;;;;;;4825234;29;19933;-87
2023/10/11 10:36:18;;;;;;;;;;;17.80;99.90;;;;;;4824817;29;19937;-84
2023/10/11 10:41:37;;;;;;;;;;;18.10;99.90;;;;;;4824899;29;19936;-86
2023/10/11 10:44:04;;;;;;;;;;;18.10;99.90;;;;;;4827935;29;20004;-84
2023/10/11 10:46:30;;;;;;;;;;;18.10;99.90;;;;;;4827696;29;19929;-85
2023/10/11 10:48:56;;;;;;;;;;;18.10;99.90;;;;;;4828372;29;20354;-86
2023/10/11 10:51:25;;;;;;;;;;;18.20;99.90;;;;;;4828370;29;19932;-85
2023/10/11 10:53:51;;;;;;;;;;;18.30;99.90;;;;;;4828279;29;20008;-85
2023/10/11 10:56:26;;;;;;;;;;;18.40;99.90;;;;;;4827865;29;20443;-85
2023/10/11 10:59:04;;;;;;;;;;;18.60;99.90;;;;;;4828243;29;19939;-85
2023/10/11 11:01:33;;;;;;;;;;;18.80;99.90;;;;;;4844106;29;19928;-86
2023/10/11 11:04:00;;;;;;;;;;;19.00;99.90;;;;;;4864099;29;20449;-86
2023/10/11 11:06:36;;;;;;;;;;;19.10;99.90;;;;;;4865516;29;19929;-83
2023/10/11 11:09:01;;;;;;;;;;;19.20;99.90;;;;;;4864909;29;20027;-86
2023/10/11 11:11:27;;;;;;;;;;;19.40;99.90;;;;;;4864739;29;19975;-86
2023/10/11 11:13:54;;;;;;;;;;;19.50;99.90;;;;;;4865299;29;19928;-84
2023/10/11 11:16:26;;;;;;;;;;;19.60;99.90;;;;;;4864067;29;19928;-84
2023/10/11 11:18:52;;;;;;;;;;;19.70;99.90;;;;;;4864659;29;19932;-86
2023/10/11 11:21:24;;;;;;;;;;;19.80;99.90;;;;;;4863429;29;19928;-86
2023/10/11 11:23:50;;;;;;;;;;;19.80;99.90;;;;;;4863659;29;19932;-84
2023/10/11 11:26:17;;;;;;;;;;;19.90;99.90;;;;;;4864649;29;19928;-83
2023/10/11 11:28:43;;;;;;;;;;;19.90;99.90;;;;;;4864120;29;20271;-86
2023/10/11 11:31:30;;;;;;;;;;;20.00;99.90;;;;;;4863020;29;20384;-85
2023/10/11 11:34:12;;;;;;;;;;;20.10;99.90;;;;;;4863493;29;20352;-85
2023/10/11 11:36:40;;;;;;;;;;;20.10;99.90;;;;;;4864422;29;19928;-85
2023/10/11 11:41:54;;;;;;;;;;;19.90;99.90;;;;;;4863235;29;19984;-87
2023/10/11 11:44:23;;;;;;;;;;;19.80;99.90;;;;;;4863510;29;20010;-86
2023/10/11 11:46:52;;;;;;;;;;;19.70;99.90;;;;;;4864972;29;20358;-86
2023/10/11 11:49:21;;;;;;;;;;;19.70;99.90;;;;;;4864095;29;19928;-87
2023/10/11 11:51:51;;;;;;;;;;;19.70;99.90;;;;;;4864091;29;19935;-85
2023/10/11 11:54:20;;;;;;;;;;;19.70;99.90;;;;;;4862828;29;20364;-85
2023/10/11 11:56:46;;;;;;;;;;;19.70;99.90;;;;;;4848008;29;20018;-85
2023/10/11 11:59:17;;;;;;;;;;;19.70;99.90;;;;;;4862866;29;20474;-85
2023/10/11 12:01:49;;;;;;;;;;;19.70;99.90;;;;;;4863686;29;19928;-85
2023/10/11 12:04:23;;;;;;;;;;;19.70;99.90;;;;;;4863974;29;19929;-85
2023/10/11 12:06:48;;;;;;;;;;;19.80;99.90;;;;;;4863861;29;20011;-84
2023/10/11 12:09:20;;;;;;;;;;;19.90;99.90;;;;;;4863760;29;19932;-85
2023/10/11 12:11:49;;;;;;;;;;;19.90;99.90;;;;;;4863534;29;20277;-84
2023/10/11 12:14:15;;;;;;;;;;;20.00;99.90;;;;;;4864264;29;19928;-84
2023/10/11 12:16:44;;;;;;;;;;;19.90;99.90;;;;;;4863742;29;20390;-84
2023/10/11 12:19:11;;;;;;;;;;;19.90;99.90;;;;;;4863556;29;20359;-85
2023/10/11 12:21:37;;;;;;;;;;;19.80;99.90;;;;;;4863248;29;19928;-84
2023/10/11 12:24:10;;;;;;;;;;;19.90;99.90;;;;;;4863477;29;19935;-84
2023/10/11 12:26:38;;;;;;;;;;;19.90;99.90;;;;;;4863452;29;19986;-88
2023/10/11 12:29:06;;;;;;;;;;;20.00;99.90;;;;;;4862391;29;19982;-87
2023/10/11 12:31:32;;;;;;;;;;;20.20;99.90;;;;;;4862302;29;19932;-84
2023/10/11 12:33:57;;;;;;;;;;;20.30;99.90;;;;;;4863226;29;19934;-88
2023/10/11 12:36:28;;;;;;;;;;;20.40;99.90;;;;;;4863112;29;19929;-83
2023/10/11 12:38:53;;;;;;;;;;;20.40;99.90;;;;;;4863206;29;20127;-83
2023/10/11 12:41:19;;;;;;;;;;;20.50;99.90;;;;;;4862826;29;19976;-86
2023/10/11 12:43:49;;;;;;;;;;;20.50;99.90;;;;;;4831620;29;19935;-83
2023/10/11 12:46:16;;;;;;;;;;;20.50;99.90;;;;;;4861758;29;20264;-85
2023/10/11 12:48:42;;;;;;;;;;;20.50;99.90;;;;;;4861871;29;19939;-85
2023/10/11 12:51:08;;;;;;;;;;;20.40;99.90;;;;;;4863766;29;20031;-83
2023/10/11 12:53:35;;;;;;;;;;;20.40;99.90;;;;;;4861770;29;19957;-84
2023/10/11 12:56:00;;;;;;;;;;;20.40;99.90;;;;;;4862683;29;19992;-84
2023/10/11 12:58:39;;;;;;;;;;;20.40;99.90;;;;;;4862603;29;19932;-86
2023/10/11 13:01:11;;;;;;;;;;;20.30;99.90;;;;;;4861580;29;19942;-86
2023/10/11 13:03:40;;;;;;;;;;;20.20;99.90;;;;;;4863301;29;19928;-85
2023/10/11 13:06:09;;;;;;;;;;;20.20;99.90;;;;;;4861082;29;20018;-84
2023/10/11 13:08:37;;;;;;;;;;;20.20;99.90;;;;;;4862310;29;20046;-85
2023/10/11 13:11:05;;;;;;;;;;;20.20;99.90;;;;;;4862645;29;19983;-85
2023/10/11 13:13:31;;;;;;;;;;;20.10;99.90;;;;;;4863551;29;19939;-88
2023/10/11 13:15:59;;;;;;;;;;;20.10;99.90;;;;;;4862474;29;19928;-87
2023/10/11 13:18:31;;;;;;;;;;;20.00;99.90;;;;;;4862568;29;19935;-85
2023/10/11 13:20:57;;;;;;;;;;;20.10;99.90;;;;;;4862390;29;19928;-86
2023/10/11 13:23:33;;;;;;;;;;;20.00;99.90;;;;;;4863051;29;19984;-85
2023/10/11 13:26:18;;;;;;;;;;;20.00;99.90;;;;;;4862455;29;19928;-86
2023/10/11 13:28:48;;;;;;;;;;;20.00;99.90;;;;;;4846498;29;20399;-86
2023/10/11 13:31:13;;;;;;;;;;;19.90;99.90;;;;;;4862262;29;19928;-85
2023/10/11 13:33:40;;;;;;;;;;;20.00;99.90;;;;;;4861239;29;19951;-85
2023/10/11 13:36:06;;;;;;;;;;;20.00;99.90;;;;;;4862899;29;19935;-85
2023/10/11 13:38:31;;;;;;;;;;;20.00;99.90;;;;;;4862291;29;20202;-85
2023/10/11 13:40:58;;;;;;;;;;;20.00;99.90;;;;;;4862998;29;19928;-86
2023/10/11 13:43:24;;;;;;;;;;;20.00;99.90;;;;;;4861515;29;19928;-87
2023/10/11 13:46:13;;;;;;;;;;;20.00;99.90;;;;;;4861230;29;19935;-87
2023/10/11 13:48:43;;;;;;;;;;;20.00;99.90;;;;;;4862032;29;19928;-87
2023/10/11 13:51:16;;;;;;;;;;;19.90;99.90;;;;;;4862674;29;19935;-85
2023/10/11 13:53:42;;;;;;;;;;;19.90;99.90;;;;;;4862217;29;19932;-84
2023/10/11 13:56:21;;;;;;;;;;;20.10;99.90;;;;;;4861922;29;19928;-88
2023/10/11 13:58:47;;;;;;;;;;;20.10;99.90;;;;;;4861936;29;19928;-83
2023/10/11 14:04:13;;;;;;;;;;;20.10;99.90;;;;;;4846879;29;19983;-85
2023/10/11 14:06:43;;;;;;;;;;;20.00;99.90;;;;;;4861969;29;19928;-85
2023/10/11 14:09:18;;;;;;;;;;;19.90;99.90;;;;;;4860688;29;19928;-84
2023/10/11 14:11:46;;;;;;;;;;;19.80;99.90;;;;;;4861767;29;20470;-86
2023/10/11 14:14:14;;;;;;;;;;;19.70;99.90;;;;;;4860440;29;19939;-83
2023/10/11 14:16:41;;;;;;;;;;;19.60;99.90;;;;;;4860808;29;19971;-85
2023/10/11 14:19:08;;;;;;;;;;;19.60;99.90;;;;;;4862279;29;19928;-85
2023/10/11 14:21:36;;;;;;;;;;;19.70;99.90;;;;;;4860885;29;20018;-84
2023/10/11 14:24:05;;;;;;;;;;;19.70;99.90;;;;;;4860887;29;19932;-84
2023/10/11 14:26:33;;;;;;;;;;;19.70;99.90;;;;;;4861587;29;19924;-84
2023/10/11 14:28:59;;;;;;;;;;;19.60;99.90;;;;;;4861696;29;20053;-85
2023/10/11 14:31:25;;;;;;;;;;;19.60;99.90;;;;;;4860773;29;19935;-87
2023/10/11 14:33:52;;;;;;;;;;;19.60;99.90;;;;;;4860708;29;19928;-85
2023/10/11 14:36:23;;;;;;;;;;;19.60;99.90;;;;;;4860506;29;19928;-86
2023/10/11 14:38:51;;;;;;;;;;;19.50;99.90;;;;;;4862102;29;20023;-85
2023/10/11 14:41:21;;;;;;;;;;;19.60;99.90;;;;;;4860567;29;20375;-83
2023/10/11 14:43:49;;;;;;;;;;;19.50;99.90;;;;;;4861876;29;19928;-87
2023/10/11 14:46:18;;;;;;;;;;;19.50;99.90;;;;;;4860636;29;20269;-87
2023/10/11 14:48:48;;;;;;;;;;;19.50;99.90;;;;;;4861215;29;20024;-89
2023/10/11 14:51:15;;;;;;;;;;;19.50;99.90;;;;;;4861629;29;19971;-87
2023/10/11 14:53:41;;;;;;;;;;;19.60;99.90;;;;;;4861835;29;20324;-86
2023/10/11 14:56:07;;;;;;;;;;;19.60;99.90;;;;;;4861461;29;19975;-85
2023/10/11 14:58:33;;;;;;;;;;;19.70;99.90;;;;;;4862173;29;19969;-89
2023/10/11 15:01:03;;;;;;;;;;;19.70;99.90;;;;;;4860510;29;19928;-88
2023/10/11 15:03:29;;;;;;;;;;;19.70;99.90;;;;;;4861405;29;19928;-87
2023/10/11 15:05:54;;;;;;;;;;;19.70;99.90;;;;;;4861363;29;20364;-88
2023/10/11 15:08:20;;;;;;;;;;;19.70;99.90;;;;;;4861765;29;19980;-92
2023/10/11 15:10:47;;;;;;;;;;;19.70;99.90;;;;;;4860681;29;19935;-88
2023/10/11 15:13:13;;;;;;;;;;;19.70;99.90;;;;;;4861184;29;19986;-87
2023/10/11 15:15:40;;;;;;;;;;;19.70;99.90;;;;;;4860986;29;19928;-87
2023/10/11 15:18:05;;;;;;;;;;;19.70;99.90;;;;;;4860597;29;19996;-91
2023/10/11 15:20:31;;;;;;;;;;;19.70;99.90;;;;;;4860213;29;20422;-88